sensor_id;sensor_type;location;lat;lon;timestamp;noise_LAeq;noise_LA_min;noise_LA_max;noise_LA01;noise_LA95
4048;Laerm;2038;51.728;6.674;2024-01-27T00:00:34;35.58;5.00;39.21;;
4048;Laerm;2038;51.728;6.674;2024-01-27T00:03:00;35.62;23.90;38.95;;
4048;Laerm;2038;51.728;6.674;2024-01-27T00:05:26;35.59;26.91;39.21;;
4048;Laerm;2038;51.728;6.674;2024-01-27T00:07:53;35.56;23.90;39.58;;
4048;Laerm;2038;51.728;6.674;2024-01-27T00:10:19;35.60;26.91;38.81;;
4048;Laerm;2038;51.728;6.674;2024-01-27T00:12:45;35.60;23.55;39.21;;
4048;Laerm;2038;51.728;6.674;2024-01-27T00:15:11;35.57;23.90;39.08;;
4048;Laerm;2038;51.728;6.674;2024-01-27T00:17:37;35.58;5.00;39.08;;
4048;Laerm;2038;51.728;6.674;2024-01-27T00:20:04;35.60;26.91;39.92;;
4048;Laerm;2038;51.728;6.674;2024-01-27T00:22:31;35.64;23.90;39.21;;
4048;Laerm;2038;51.728;6.674;2024-01-27T00:24:57;35.60;23.55;39.58;;
4048;Laerm;2038;51.728;6.674;2024-01-27T00:27:23;35.56;5.00;39.08;;
4048;Laerm;2038;51.728;6.674;2024-01-27T00:29:49;35.59;5.00;39.21;;
4048;Laerm;2038;51.728;6.674;2024-01-27T00:32:15;35.59;23.90;39.08;;
4048;Laerm;2038;51.728;6.674;2024-01-27T00:34:42;35.59;26.91;39.34;;
4048;Laerm;2038;51.728;6.674;2024-01-27T00:37:08;35.60;23.90;39.21;;
4048;Laerm;2038;51.728;6.674;2024-01-27T00:39:34;35.62;23.90;39.08;;
4048;Laerm;2038;51.728;6.674;2024-01-27T00:42:00;35.58;23.55;38.95;;
4048;Laerm;2038;51.728;6.674;2024-01-27T00:44:27;35.60;5.00;38.99;;
4048;Laerm;2038;51.728;6.674;2024-01-27T00:46:53;35.61;5.00;39.70;;
4048;Laerm;2038;51.728;6.674;2024-01-27T00:49:19;35.59;23.90;38.95;;
4048;Laerm;2038;51.728;6.674;2024-01-27T00:51:46;35.60;23.90;39.21;;
4048;Laerm;2038;51.728;6.674;2024-01-27T00:54:12;35.56;23.90;39.46;;
4048;Laerm;2038;51.728;6.674;2024-01-27T00:56:38;35.58;26.91;39.34;;
4048;Laerm;2038;51.728;6.674;2024-01-27T00:59:05;35.58;23.90;39.34;;
4048;Laerm;2038;51.728;6.674;2024-01-27T01:01:31;35.54;23.90;39.08;;
4048;Laerm;2038;51.728;6.674;2024-01-27T01:03:57;35.58;23.90;39.08;;
4048;Laerm;2038;51.728;6.674;2024-01-27T01:06:23;35.58;23.90;39.46;;
4048;Laerm;2038;51.728;6.674;2024-01-27T01:08:50;35.57;23.90;39.21;;
4048;Laerm;2038;51.728;6.674;2024-01-27T01:11:16;35.55;23.90;39.08;;
4048;Laerm;2038;51.728;6.674;2024-01-27T01:13:43;35.59;23.90;39.21;;
4048;Laerm;2038;51.728;6.674;2024-01-27T01:16:09;35.62;23.90;38.99;;
4048;Laerm;2038;51.728;6.674;2024-01-27T01:18:35;35.58;23.90;39.21;;
4048;Laerm;2038;51.728;6.674;2024-01-27T01:21:02;35.59;23.90;39.08;;
4048;Laerm;2038;51.728;6.674;2024-01-27T01:23:28;35.59;23.90;39.58;;
4048;Laerm;2038;51.728;6.674;2024-01-27T01:25:54;35.58;23.90;39.21;;
4048;Laerm;2038;51.728;6.674;2024-01-27T01:28:20;35.61;23.90;38.95;;
4048;Laerm;2038;51.728;6.674;2024-01-27T01:30:46;35.58;23.90;39.70;;
4048;Laerm;2038;51.728;6.674;2024-01-27T01:33:13;35.60;23.90;39.46;;
4048;Laerm;2038;51.728;6.674;2024-01-27T01:35:39;35.58;23.90;38.95;;
4048;Laerm;2038;51.728;6.674;2024-01-27T01:38:05;35.62;23.90;39.11;;
4048;Laerm;2038;51.728;6.674;2024-01-27T01:40:31;35.58;23.90;39.08;;
4048;Laerm;2038;51.728;6.674;2024-01-27T01:42:59;35.58;23.90;38.95;;
4048;Laerm;2038;51.728;6.674;2024-01-27T01:45:25;35.56;23.90;38.95;;
4048;Laerm;2038;51.728;6.674;2024-01-27T01:47:52;35.58;26.91;38.95;;
4048;Laerm;2038;51.728;6.674;2024-01-27T01:50:18;35.55;23.90;39.21;;
4048;Laerm;2038;51.728;6.674;2024-01-27T01:52:47;35.54;26.91;39.34;;
4048;Laerm;2038;51.728;6.674;2024-01-27T01:55:14;35.57;5.00;39.21;;
4048;Laerm;2038;51.728;6.674;2024-01-27T01:57:43;35.62;26.91;38.81;;
4048;Laerm;2038;51.728;6.674;2024-01-27T02:00:11;35.59;26.56;39.58;;
4048;Laerm;2038;51.728;6.674;2024-01-27T02:02:37;35.57;26.91;39.08;;
4048;Laerm;2038;51.728;6.674;2024-01-27T02:05:04;35.52;26.91;39.08;;
4048;Laerm;2038;51.728;6.674;2024-01-27T02:07:30;35.60;23.90;38.81;;
4048;Laerm;2038;51.728;6.674;2024-01-27T02:09:56;35.55;26.91;39.34;;
4048;Laerm;2038;51.728;6.674;2024-01-27T02:12:23;35.60;23.90;38.99;;
4048;Laerm;2038;51.728;6.674;2024-01-27T02:14:49;35.57;23.90;39.08;;
4048;Laerm;2038;51.728;6.674;2024-01-27T02:17:16;35.54;5.00;39.11;;
4048;Laerm;2038;51.728;6.674;2024-01-27T02:19:42;35.60;23.90;39.21;;
4048;Laerm;2038;51.728;6.674;2024-01-27T02:22:08;35.54;23.90;39.21;;
4048;Laerm;2038;51.728;6.674;2024-01-27T02:24:34;35.59;23.90;38.81;;
4048;Laerm;2038;51.728;6.674;2024-01-27T02:27:00;35.53;23.55;39.08;;
4048;Laerm;2038;51.728;6.674;2024-01-27T02:29:27;35.53;26.91;39.58;;
4048;Laerm;2038;51.728;6.674;2024-01-27T02:31:55;35.57;23.90;38.95;;
4048;Laerm;2038;51.728;6.674;2024-01-27T02:34:21;35.54;5.00;39.34;;
4048;Laerm;2038;51.728;6.674;2024-01-27T02:36:47;35.56;26.91;38.95;;
4048;Laerm;2038;51.728;6.674;2024-01-27T02:39:13;35.56;23.55;39.08;;
4048;Laerm;2038;51.728;6.674;2024-01-27T02:41:40;35.55;5.00;39.34;;
4048;Laerm;2038;51.728;6.674;2024-01-27T02:44:06;35.54;23.90;39.34;;
4048;Laerm;2038;51.728;6.674;2024-01-27T02:46:32;35.57;26.56;39.21;;
4048;Laerm;2038;51.728;6.674;2024-01-27T02:48:58;35.57;5.00;39.08;;
4048;Laerm;2038;51.728;6.674;2024-01-27T02:51:25;35.57;23.90;39.21;;
4048;Laerm;2038;51.728;6.674;2024-01-27T02:53:51;35.56;26.91;39.46;;
4048;Laerm;2038;51.728;6.674;2024-01-27T02:56:17;35.53;26.56;39.21;;
4048;Laerm;2038;51.728;6.674;2024-01-27T02:58:43;35.52;23.90;39.08;;
4048;Laerm;2038;51.728;6.674;2024-01-27T03:01:10;35.56;23.90;39.08;;
4048;Laerm;2038;51.728;6.674;2024-01-27T03:03:36;35.52;5.00;39.34;;
4048;Laerm;2038;51.728;6.674;2024-01-27T03:06:02;35.51;23.55;39.08;;
4048;Laerm;2038;51.728;6.674;2024-01-27T03:08:28;35.58;23.90;39.34;;
4048;Laerm;2038;51.728;6.674;2024-01-27T03:10:55;35.55;5.00;39.21;;
4048;Laerm;2038;51.728;6.674;2024-01-27T03:13:21;35.51;26.56;39.08;;
4048;Laerm;2038;51.728;6.674;2024-01-27T03:15:47;35.54;23.90;38.95;;
4048;Laerm;2038;51.728;6.674;2024-01-27T03:18:15;35.58;23.90;39.34;;
4048;Laerm;2038;51.728;6.674;2024-01-27T03:20:41;35.58;23.90;39.58;;
4048;Laerm;2038;51.728;6.674;2024-01-27T03:23:07;35.54;5.00;38.99;;
4048;Laerm;2038;51.728;6.674;2024-01-27T03:25:34;35.53;5.00;38.81;;
4048;Laerm;2038;51.728;6.674;2024-01-27T03:28:00;35.57;23.90;39.21;;
4048;Laerm;2038;51.728;6.674;2024-01-27T03:30:27;35.54;5.00;39.58;;
4048;Laerm;2038;51.728;6.674;2024-01-27T03:32:53;35.51;5.00;38.95;;
4048;Laerm;2038;51.728;6.674;2024-01-27T03:35:19;35.56;5.00;38.95;;
4048;Laerm;2038;51.728;6.674;2024-01-27T03:37:45;35.55;23.90;38.95;;
4048;Laerm;2038;51.728;6.674;2024-01-27T03:40:12;35.52;23.90;38.95;;
4048;Laerm;2038;51.728;6.674;2024-01-27T03:42:39;35.51;26.91;39.58;;
4048;Laerm;2038;51.728;6.674;2024-01-27T03:45:06;35.56;5.00;39.46;;
4048;Laerm;2038;51.728;6.674;2024-01-27T03:47:32;35.54;5.00;39.21;;
4048;Laerm;2038;51.728;6.674;2024-01-27T03:49:58;35.57;23.55;39.21;;
4048;Laerm;2038;51.728;6.674;2024-01-27T03:52:25;35.54;23.90;39.21;;
4048;Laerm;2038;51.728;6.674;2024-01-27T03:54:51;35.57;23.90;39.08;;
4048;Laerm;2038;51.728;6.674;2024-01-27T03:57:17;35.56;23.90;38.81;;
4048;Laerm;2038;51.728;6.674;2024-01-27T03:59:43;35.55;23.90;39.08;;
4048;Laerm;2038;51.728;6.674;2024-01-27T04:02:10;35.52;5.00;39.46;;
4048;Laerm;2038;51.728;6.674;2024-01-27T04:04:36;35.54;23.90;39.34;;
4048;Laerm;2038;51.728;6.674;2024-01-27T04:07:02;35.55;23.90;38.95;;
4048;Laerm;2038;51.728;6.674;2024-01-27T04:09:28;35.53;5.00;38.81;;
4048;Laerm;2038;51.728;6.674;2024-01-27T04:11:55;35.56;5.00;38.95;;
4048;Laerm;2038;51.728;6.674;2024-01-27T04:14:21;35.57;26.91;38.81;;
4048;Laerm;2038;51.728;6.674;2024-01-27T04:16:47;35.53;26.91;38.81;;
4048;Laerm;2038;51.728;6.674;2024-01-27T04:19:13;35.63;23.90;39.34;;
4048;Laerm;2038;51.728;6.674;2024-01-27T04:21:39;35.55;23.90;39.08;;
4048;Laerm;2038;51.728;6.674;2024-01-27T04:24:07;35.54;5.00;39.21;;
4048;Laerm;2038;51.728;6.674;2024-01-27T04:26:34;35.56;23.90;39.21;;
4048;Laerm;2038;51.728;6.674;2024-01-27T04:29:00;35.54;23.90;39.34;;
4048;Laerm;2038;51.728;6.674;2024-01-27T04:31:26;35.55;23.90;39.08;;
4048;Laerm;2038;51.728;6.674;2024-01-27T04:33:52;35.57;23.90;39.08;;
4048;Laerm;2038;51.728;6.674;2024-01-27T04:36:31;35.56;23.90;39.08;;
4048;Laerm;2038;51.728;6.674;2024-01-27T04:38:57;35.55;23.90;39.08;;
4048;Laerm;2038;51.728;6.674;2024-01-27T04:41:23;35.55;26.91;39.46;;
4048;Laerm;2038;51.728;6.674;2024-01-27T04:43:49;35.56;23.90;39.21;;
4048;Laerm;2038;51.728;6.674;2024-01-27T04:46:16;35.54;5.00;39.21;;
4048;Laerm;2038;51.728;6.674;2024-01-27T04:48:43;35.54;23.90;38.81;;
4048;Laerm;2038;51.728;6.674;2024-01-27T04:51:09;35.52;23.90;39.08;;
4048;Laerm;2038;51.728;6.674;2024-01-27T04:53:36;35.55;23.90;39.21;;
4048;Laerm;2038;51.728;6.674;2024-01-27T04:56:02;35.53;23.90;39.21;;
4048;Laerm;2038;51.728;6.674;2024-01-27T04:58:28;35.51;23.90;39.08;;
4048;Laerm;2038;51.728;6.674;2024-01-27T05:00:55;35.56;23.90;39.21;;
4048;Laerm;2038;51.728;6.674;2024-01-27T05:03:21;35.54;5.00;39.08;;
4048;Laerm;2038;51.728;6.674;2024-01-27T05:05:47;35.56;23.90;39.08;;
4048;Laerm;2038;51.728;6.674;2024-01-27T05:08:13;35.54;26.91;39.21;;
4048;Laerm;2038;51.728;6.674;2024-01-27T05:10:40;35.53;23.90;39.34;;
4048;Laerm;2038;51.728;6.674;2024-01-27T05:13:06;35.56;23.90;39.34;;
4048;Laerm;2038;51.728;6.674;2024-01-27T05:15:32;35.53;23.90;39.21;;
4048;Laerm;2038;51.728;6.674;2024-01-27T05:17:58;35.50;23.90;39.34;;
4048;Laerm;2038;51.728;6.674;2024-01-27T05:20:25;35.55;23.90;39.08;;
4048;Laerm;2038;51.728;6.674;2024-01-27T05:22:51;35.54;23.90;39.21;;
4048;Laerm;2038;51.728;6.674;2024-01-27T05:25:17;35.53;5.00;39.21;;
4048;Laerm;2038;51.728;6.674;2024-01-27T05:27:43;35.50;23.90;39.46;;
4048;Laerm;2038;51.728;6.674;2024-01-27T05:30:10;35.55;23.90;39.46;;
4048;Laerm;2038;51.728;6.674;2024-01-27T05:32:36;35.52;5.00;39.34;;
4048;Laerm;2038;51.728;6.674;2024-01-27T05:35:03;35.53;23.90;39.46;;
4048;Laerm;2038;51.728;6.674;2024-01-27T05:37:31;35.54;23.90;38.95;;
4048;Laerm;2038;51.728;6.674;2024-01-27T05:39:57;35.54;23.90;39.08;;
4048;Laerm;2038;51.728;6.674;2024-01-27T05:42:23;35.55;23.90;39.21;;
4048;Laerm;2038;51.728;6.674;2024-01-27T05:44:49;35.50;23.90;38.95;;
4048;Laerm;2038;51.728;6.674;2024-01-27T05:47:16;35.54;23.90;39.46;;
4048;Laerm;2038;51.728;6.674;2024-01-27T05:49:42;35.56;26.56;39.08;;
4048;Laerm;2038;51.728;6.674;2024-01-27T05:52:08;35.57;23.90;39.21;;
4048;Laerm;2038;51.728;6.674;2024-01-27T05:54:34;35.55;26.91;39.70;;
4048;Laerm;2038;51.728;6.674;2024-01-27T05:57:00;35.56;23.90;39.08;;
4048;Laerm;2038;51.728;6.674;2024-01-27T05:59:27;35.54;23.90;38.95;;
4048;Laerm;2038;51.728;6.674;2024-01-27T06:01:53;35.53;23.90;39.21;;
4048;Laerm;2038;51.728;6.674;2024-01-27T06:04:19;35.53;26.91;38.95;;
4048;Laerm;2038;51.728;6.674;2024-01-27T06:06:45;35.53;23.90;39.21;;
4048;Laerm;2038;51.728;6.674;2024-01-27T06:09:12;35.54;23.90;38.95;;
4048;Laerm;2038;51.728;6.674;2024-01-27T06:11:40;35.52;26.56;39.08;;
4048;Laerm;2038;51.728;6.674;2024-01-27T06:14:06;35.53;23.90;39.58;;
4048;Laerm;2038;51.728;6.674;2024-01-27T06:16:32;35.54;23.90;39.34;;
4048;Laerm;2038;51.728;6.674;2024-01-27T06:18:59;35.52;5.00;38.81;;
4048;Laerm;2038;51.728;6.674;2024-01-27T06:21:26;35.58;23.90;39.34;;
4048;Laerm;2038;51.728;6.674;2024-01-27T06:23:52;35.54;23.90;39.21;;
4048;Laerm;2038;51.728;6.674;2024-01-27T06:26:18;35.53;23.90;38.95;;
4048;Laerm;2038;51.728;6.674;2024-01-27T06:28:44;35.55;26.91;39.08;;
4048;Laerm;2038;51.728;6.674;2024-01-27T06:31:11;35.57;23.90;39.46;;
4048;Laerm;2038;51.728;6.674;2024-01-27T06:33:38;35.54;23.90;39.08;;
4048;Laerm;2038;51.728;6.674;2024-01-27T06:36:04;35.58;23.90;39.08;;
4048;Laerm;2038;51.728;6.674;2024-01-27T06:38:30;35.56;5.00;39.34;;
4048;Laerm;2038;51.728;6.674;2024-01-27T06:40:57;35.54;23.90;38.95;;
4048;Laerm;2038;51.728;6.674;2024-01-27T06:43:24;35.53;23.90;39.58;;
4048;Laerm;2038;51.728;6.674;2024-01-27T06:45:50;35.56;26.91;38.95;;
4048;Laerm;2038;51.728;6.674;2024-01-27T06:48:16;35.57;23.90;39.46;;
4048;Laerm;2038;51.728;6.674;2024-01-27T06:50:42;35.54;23.90;39.08;;
4048;Laerm;2038;51.728;6.674;2024-01-27T06:53:08;35.60;26.91;39.46;;
4048;Laerm;2038;51.728;6.674;2024-01-27T06:55:36;35.56;23.90;39.46;;
4048;Laerm;2038;51.728;6.674;2024-01-27T06:58:02;35.54;26.91;38.81;;
4048;Laerm;2038;51.728;6.674;2024-01-27T07:00:29;35.56;23.90;38.95;;
4048;Laerm;2038;51.728;6.674;2024-01-27T07:02:57;35.58;23.90;39.46;;
4048;Laerm;2038;51.728;6.674;2024-01-27T07:05:24;35.54;26.91;38.95;;
4048;Laerm;2038;51.728;6.674;2024-01-27T07:07:50;35.50;23.90;38.95;;
4048;Laerm;2038;51.728;6.674;2024-01-27T07:10:16;35.58;5.00;39.46;;
4048;Laerm;2038;51.728;6.674;2024-01-27T07:12:42;35.55;23.90;38.95;;
4048;Laerm;2038;51.728;6.674;2024-01-27T07:15:09;35.57;5.00;39.08;;
4048;Laerm;2038;51.728;6.674;2024-01-27T07:17:35;35.56;23.90;39.34;;
4048;Laerm;2038;51.728;6.674;2024-01-27T07:20:01;35.57;5.00;39.08;;
4048;Laerm;2038;51.728;6.674;2024-01-27T07:22:29;35.60;26.91;39.21;;
4048;Laerm;2038;51.728;6.674;2024-01-27T07:24:55;35.55;5.00;39.08;;
4048;Laerm;2038;51.728;6.674;2024-01-27T07:27:22;35.55;5.00;39.21;;
4048;Laerm;2038;51.728;6.674;2024-01-27T07:29:49;35.59;5.00;39.21;;
4048;Laerm;2038;51.728;6.674;2024-01-27T07:32:15;35.58;5.00;39.08;;
4048;Laerm;2038;51.728;6.674;2024-01-27T07:34:43;35.56;5.00;39.21;;
4048;Laerm;2038;51.728;6.674;2024-01-27T07:37:10;35.57;26.56;39.08;;
4048;Laerm;2038;51.728;6.674;2024-01-27T07:39:37;35.59;23.90;39.21;;
4048;Laerm;2038;51.728;6.674;2024-01-27T07:42:03;35.61;26.91;39.21;;
4048;Laerm;2038;51.728;6.674;2024-01-27T07:44:29;35.61;23.90;38.95;;
4048;Laerm;2038;51.728;6.674;2024-01-27T07:46:56;35.59;23.90;39.08;;
4048;Laerm;2038;51.728;6.674;2024-01-27T07:49:22;35.56;23.90;39.08;;
4048;Laerm;2038;51.728;6.674;2024-01-27T07:51:48;35.58;26.91;38.95;;
4048;Laerm;2038;51.728;6.674;2024-01-27T07:54:14;35.59;5.00;39.23;;
4048;Laerm;2038;51.728;6.674;2024-01-27T07:56:41;35.60;26.91;39.21;;
4048;Laerm;2038;51.728;6.674;2024-01-27T07:59:07;35.56;5.00;39.08;;
4048;Laerm;2038;51.728;6.674;2024-01-27T08:01:40;35.53;23.90;39.46;;
4048;Laerm;2038;51.728;6.674;2024-01-27T08:04:06;35.56;23.90;39.21;;
4048;Laerm;2038;51.728;6.674;2024-01-27T08:06:32;35.59;26.91;39.46;;
4048;Laerm;2038;51.728;6.674;2024-01-27T08:08:59;35.59;5.00;38.95;;
4048;Laerm;2038;51.728;6.674;2024-01-27T08:11:26;35.59;5.00;39.58;;
4048;Laerm;2038;51.728;6.674;2024-01-27T08:13:52;35.57;5.00;39.46;;
4048;Laerm;2038;51.728;6.674;2024-01-27T08:16:19;35.57;23.90;39.34;;
4048;Laerm;2038;51.728;6.674;2024-01-27T08:18:46;35.56;26.56;39.08;;
4048;Laerm;2038;51.728;6.674;2024-01-27T08:21:12;35.58;23.90;39.34;;
4048;Laerm;2038;51.728;6.674;2024-01-27T08:23:38;35.59;26.91;39.21;;
4048;Laerm;2038;51.728;6.674;2024-01-27T08:26:05;35.58;5.00;39.34;;
4048;Laerm;2038;51.728;6.674;2024-01-27T08:28:31;35.59;5.00;38.87;;
4048;Laerm;2038;51.728;6.674;2024-01-27T08:30:57;35.60;23.90;39.34;;
4048;Laerm;2038;51.728;6.674;2024-01-27T08:33:25;35.58;23.90;39.23;;
4048;Laerm;2038;51.728;6.674;2024-01-27T08:35:52;35.58;26.91;39.21;;
4048;Laerm;2038;51.728;6.674;2024-01-27T08:38:18;35.61;26.91;38.95;;
4048;Laerm;2038;51.728;6.674;2024-01-27T08:40:44;35.63;26.91;39.08;;
4048;Laerm;2038;51.728;6.674;2024-01-27T08:43:10;35.60;5.00;39.08;;
4048;Laerm;2038;51.728;6.674;2024-01-27T08:45:38;35.59;23.90;39.58;;
4048;Laerm;2038;51.728;6.674;2024-01-27T08:48:06;35.59;5.00;39.08;;
4048;Laerm;2038;51.728;6.674;2024-01-27T08:50:32;35.60;26.91;39.34;;
4048;Laerm;2038;51.728;6.674;2024-01-27T08:52:59;35.66;26.91;39.08;;
4048;Laerm;2038;51.728;6.674;2024-01-27T08:55:25;35.62;23.90;38.95;;
4048;Laerm;2038;51.728;6.674;2024-01-27T08:57:51;35.60;23.90;39.34;;
4048;Laerm;2038;51.728;6.674;2024-01-27T09:00:18;35.61;26.91;39.46;;
4048;Laerm;2038;51.728;6.674;2024-01-27T09:02:45;35.64;26.91;39.21;;
4048;Laerm;2038;51.728;6.674;2024-01-27T09:05:11;35.64;23.90;39.08;;
4048;Laerm;2038;51.728;6.674;2024-01-27T09:07:38;35.65;26.91;39.08;;
4048;Laerm;2038;51.728;6.674;2024-01-27T09:10:04;35.66;23.90;39.08;;
4048;Laerm;2038;51.728;6.674;2024-01-27T09:12:31;35.64;23.90;39.46;;
4048;Laerm;2038;51.728;6.674;2024-01-27T09:14:57;35.67;23.90;39.21;;
4048;Laerm;2038;51.728;6.674;2024-01-27T09:17:23;35.63;23.90;39.21;;
4048;Laerm;2038;51.728;6.674;2024-01-27T09:19:49;35.65;26.91;39.08;;
4048;Laerm;2038;51.728;6.674;2024-01-27T09:22:16;35.65;26.91;39.21;;
4048;Laerm;2038;51.728;6.674;2024-01-27T09:24:43;35.64;23.90;39.21;;
4048;Laerm;2038;51.728;6.674;2024-01-27T09:27:09;35.66;5.00;39.58;;
4048;Laerm;2038;51.728;6.674;2024-01-27T09:29:35;35.68;23.55;39.34;;
4048;Laerm;2038;51.728;6.674;2024-01-27T09:32:01;35.64;23.90;39.58;;
4048;Laerm;2038;51.728;6.674;2024-01-27T09:34:28;35.67;23.90;38.81;;
4048;Laerm;2038;51.728;6.674;2024-01-27T09:36:54;35.66;26.91;39.46;;
4048;Laerm;2038;51.728;6.674;2024-01-27T09:39:20;35.69;23.90;39.46;;
4048;Laerm;2038;51.728;6.674;2024-01-27T09:41:49;35.69;23.90;39.46;;
4048;Laerm;2038;51.728;6.674;2024-01-27T09:44:18;35.67;23.90;39.21;;
4048;Laerm;2038;51.728;6.674;2024-01-27T09:46:48;35.65;23.90;39.08;;
4048;Laerm;2038;51.728;6.674;2024-01-27T09:49:14;35.62;5.00;38.95;;
4048;Laerm;2038;51.728;6.674;2024-01-27T09:51:42;35.64;26.91;39.08;;
4048;Laerm;2038;51.728;6.674;2024-01-27T09:54:09;35.66;23.90;39.08;;
4048;Laerm;2038;51.728;6.674;2024-01-27T09:56:35;35.70;23.90;39.34;;
4048;Laerm;2038;51.728;6.674;2024-01-27T09:59:02;35.68;26.91;39.21;;
4048;Laerm;2038;51.728;6.674;2024-01-27T10:01:29;35.69;23.90;39.46;;
4048;Laerm;2038;51.728;6.674;2024-01-27T10:03:56;35.69;23.90;39.08;;
4048;Laerm;2038;51.728;6.674;2024-01-27T10:06:24;35.67;26.91;39.21;;
4048;Laerm;2038;51.728;6.674;2024-01-27T10:08:56;35.68;23.90;39.34;;
4048;Laerm;2038;51.728;6.674;2024-01-27T10:11:23;35.72;23.90;39.81;;
4048;Laerm;2038;51.728;6.674;2024-01-27T10:13:58;35.73;26.91;39.34;;
4048;Laerm;2038;51.728;6.674;2024-01-27T10:16:26;35.72;5.00;38.95;;
4048;Laerm;2038;51.728;6.674;2024-01-27T10:19:03;35.71;23.90;39.21;;
4048;Laerm;2038;51.728;6.674;2024-01-27T10:21:29;35.68;26.91;39.21;;
4048;Laerm;2038;51.728;6.674;2024-01-27T10:23:55;35.70;26.91;39.34;;
4048;Laerm;2038;51.728;6.674;2024-01-27T10:26:22;35.67;23.90;39.08;;
4048;Laerm;2038;51.728;6.674;2024-01-27T10:28:57;35.69;26.91;39.70;;
4048;Laerm;2038;51.728;6.674;2024-01-27T10:31:34;35.66;23.90;39.46;;
4048;Laerm;2038;51.728;6.674;2024-01-27T10:34:02;35.64;26.56;39.70;;
4048;Laerm;2038;51.728;6.674;2024-01-27T10:36:43;35.65;26.91;39.08;;
4048;Laerm;2038;51.728;6.674;2024-01-27T10:39:20;35.69;5.00;39.21;;
4048;Laerm;2038;51.728;6.674;2024-01-27T10:41:47;35.67;23.90;39.46;;
4048;Laerm;2038;51.728;6.674;2024-01-27T10:44:17;35.73;23.90;39.21;;
4048;Laerm;2038;51.728;6.674;2024-01-27T10:46:49;35.67;23.90;39.70;;
4048;Laerm;2038;51.728;6.674;2024-01-27T10:49:17;35.67;5.00;39.21;;
4048;Laerm;2038;51.728;6.674;2024-01-27T10:51:57;35.67;23.55;39.08;;
4048;Laerm;2038;51.728;6.674;2024-01-27T10:54:27;35.67;26.91;39.21;;
4048;Laerm;2038;51.728;6.674;2024-01-27T10:56:57;35.69;26.91;39.34;;
4048;Laerm;2038;51.728;6.674;2024-01-27T10:59:27;35.70;5.00;40.03;;
4048;Laerm;2038;51.728;6.674;2024-01-27T11:01:55;35.68;5.00;39.34;;
4048;Laerm;2038;51.728;6.674;2024-01-27T11:04:23;35.67;23.90;39.21;;
4048;Laerm;2038;51.728;6.674;2024-01-27T11:06:49;35.71;23.90;39.34;;
4048;Laerm;2038;51.728;6.674;2024-01-27T11:09:17;35.74;23.90;39.21;;
4048;Laerm;2038;51.728;6.674;2024-01-27T11:11:45;35.65;23.90;39.46;;
4048;Laerm;2038;51.728;6.674;2024-01-27T11:14:13;35.70;23.90;39.23;;
4048;Laerm;2038;51.728;6.674;2024-01-27T11:16:39;35.68;23.90;39.58;;
4048;Laerm;2038;51.728;6.674;2024-01-27T11:19:12;35.65;5.00;39.81;;
4048;Laerm;2038;51.728;6.674;2024-01-27T11:21:38;35.71;23.90;39.21;;
4048;Laerm;2038;51.728;6.674;2024-01-27T11:24:18;35.71;5.00;39.34;;
4048;Laerm;2038;51.728;6.674;2024-01-27T11:26:44;35.68;23.90;38.95;;
4048;Laerm;2038;51.728;6.674;2024-01-27T11:29:11;35.69;23.90;39.21;;
4048;Laerm;2038;51.728;6.674;2024-01-27T11:31:46;35.72;5.00;39.34;;
4048;Laerm;2038;51.728;6.674;2024-01-27T11:34:12;35.71;23.90;39.23;;
4048;Laerm;2038;51.728;6.674;2024-01-27T11:36:38;35.66;26.91;39.34;;
4048;Laerm;2038;51.728;6.674;2024-01-27T11:39:05;35.65;23.90;39.21;;
4048;Laerm;2038;51.728;6.674;2024-01-27T11:41:48;35.67;26.56;39.46;;
4048;Laerm;2038;51.728;6.674;2024-01-27T11:44:14;35.63;23.90;39.34;;
4048;Laerm;2038;51.728;6.674;2024-01-27T11:46:41;35.69;23.90;39.21;;
4048;Laerm;2038;51.728;6.674;2024-01-27T11:49:14;35.68;23.90;39.81;;
4048;Laerm;2038;51.728;6.674;2024-01-27T11:51:40;35.66;23.90;39.34;;
4048;Laerm;2038;51.728;6.674;2024-01-27T11:54:07;35.67;23.90;38.95;;
4048;Laerm;2038;51.728;6.674;2024-01-27T11:56:33;35.67;5.00;39.34;;
4048;Laerm;2038;51.728;6.674;2024-01-27T11:58:59;35.68;26.91;39.21;;
4048;Laerm;2038;51.728;6.674;2024-01-27T12:01:25;35.68;5.00;39.46;;
4048;Laerm;2038;51.728;6.674;2024-01-27T12:03:52;35.70;23.90;39.46;;
4048;Laerm;2038;51.728;6.674;2024-01-27T12:06:18;35.73;26.91;39.08;;
4048;Laerm;2038;51.728;6.674;2024-01-27T12:08:45;35.73;23.90;39.34;;
4048;Laerm;2038;51.728;6.674;2024-01-27T12:11:13;35.64;26.91;39.08;;
4048;Laerm;2038;51.728;6.674;2024-01-27T12:13:40;35.67;23.90;39.21;;
4048;Laerm;2038;51.728;6.674;2024-01-27T12:16:08;35.65;5.00;38.95;;
4048;Laerm;2038;51.728;6.674;2024-01-27T12:18:35;35.69;23.90;39.46;;
4048;Laerm;2038;51.728;6.674;2024-01-27T12:21:01;35.67;23.90;39.08;;
4048;Laerm;2038;51.728;6.674;2024-01-27T12:23:28;35.68;26.91;39.34;;
4048;Laerm;2038;51.728;6.674;2024-01-27T12:25:55;35.66;23.90;39.21;;
4048;Laerm;2038;51.728;6.674;2024-01-27T12:28:25;35.70;28.67;39.21;;
4048;Laerm;2038;51.728;6.674;2024-01-27T12:30:53;35.68;23.90;39.34;;
4048;Laerm;2038;51.728;6.674;2024-01-27T12:33:20;35.68;5.00;39.08;;
4048;Laerm;2038;51.728;6.674;2024-01-27T12:35:50;35.71;26.56;39.08;;
4048;Laerm;2038;51.728;6.674;2024-01-27T12:38:20;35.67;23.90;39.08;;
4048;Laerm;2038;51.728;6.674;2024-01-27T12:40:46;35.67;5.00;38.95;;
4048;Laerm;2038;51.728;6.674;2024-01-27T12:43:12;35.70;26.91;39.21;;
4048;Laerm;2038;51.728;6.674;2024-01-27T12:45:39;35.68;23.90;39.70;;
4048;Laerm;2038;51.728;6.674;2024-01-27T12:48:05;35.68;23.90;39.70;;
4048;Laerm;2038;51.728;6.674;2024-01-27T12:50:31;35.68;23.90;39.21;;
4048;Laerm;2038;51.728;6.674;2024-01-27T12:52:59;35.71;5.00;39.58;;
4048;Laerm;2038;51.728;6.674;2024-01-27T12:55:25;35.69;5.00;39.21;;
4048;Laerm;2038;51.728;6.674;2024-01-27T12:57:51;35.66;23.90;39.70;;
4048;Laerm;2038;51.728;6.674;2024-01-27T13:00:18;35.69;23.55;39.34;;
4048;Laerm;2038;51.728;6.674;2024-01-27T13:02:45;35.69;5.00;38.95;;
4048;Laerm;2038;51.728;6.674;2024-01-27T13:05:11;35.68;23.90;39.46;;
4048;Laerm;2038;51.728;6.674;2024-01-27T13:07:37;35.71;5.00;39.23;;
4048;Laerm;2038;51.728;6.674;2024-01-27T13:10:04;35.68;26.91;39.08;;
4048;Laerm;2038;51.728;6.674;2024-01-27T13:12:31;35.67;26.91;38.95;;
4048;Laerm;2038;51.728;6.674;2024-01-27T13:14:57;35.66;28.67;39.34;;
4048;Laerm;2038;51.728;6.674;2024-01-27T13:17:24;35.67;23.90;39.23;;
4048;Laerm;2038;51.728;6.674;2024-01-27T13:19:50;35.68;26.91;39.08;;
4048;Laerm;2038;51.728;6.674;2024-01-27T13:22:17;35.66;23.90;39.11;;
4048;Laerm;2038;51.728;6.674;2024-01-27T13:24:43;35.65;5.00;39.46;;
4048;Laerm;2038;51.728;6.674;2024-01-27T13:27:10;35.68;23.90;39.34;;
4048;Laerm;2038;51.728;6.674;2024-01-27T13:29:37;35.65;23.90;38.95;;
4048;Laerm;2038;51.728;6.674;2024-01-27T13:32:03;35.66;5.00;39.21;;
4048;Laerm;2038;51.728;6.674;2024-01-27T13:34:29;35.68;26.91;39.21;;
4048;Laerm;2038;51.728;6.674;2024-01-27T13:36:56;35.65;23.90;39.46;;
4048;Laerm;2038;51.728;6.674;2024-01-27T13:39:23;35.66;23.90;38.95;;
4048;Laerm;2038;51.728;6.674;2024-01-27T13:41:49;35.69;5.00;39.21;;
4048;Laerm;2038;51.728;6.674;2024-01-27T13:44:15;35.66;23.90;39.46;;
4048;Laerm;2038;51.728;6.674;2024-01-27T13:46:41;35.70;23.90;38.67;;
4048;Laerm;2038;51.728;6.674;2024-01-27T13:49:08;35.70;26.91;39.92;;
4048;Laerm;2038;51.728;6.674;2024-01-27T13:51:34;35.65;23.90;39.21;;
4048;Laerm;2038;51.728;6.674;2024-01-27T13:54:00;35.67;5.00;39.08;;
4048;Laerm;2038;51.728;6.674;2024-01-27T13:56:26;35.64;28.67;39.23;;
4048;Laerm;2038;51.728;6.674;2024-01-27T13:58:55;35.67;23.55;39.70;;
4048;Laerm;2038;51.728;6.674;2024-01-27T14:01:21;35.70;26.91;39.46;;
4048;Laerm;2038;51.728;6.674;2024-01-27T14:03:47;35.63;5.00;39.34;;
4048;Laerm;2038;51.728;6.674;2024-01-27T14:06:13;35.69;23.90;39.70;;
4048;Laerm;2038;51.728;6.674;2024-01-27T14:08:40;35.66;23.90;39.21;;